Time;durP1;ratioP1;P1;durP2;ratioP2;P2;SDS_P1;SDS_P2;PMS_P1;PMS_P2;Temp;Humidity;BMP_temperature;BMP_pressure;BME280_temperature;BME280_humidity;BME280_pressure;Samples;Min_cycle;Max_cycle;Signal;HPM_P1;HPM_P2
2022/11/18 00:00:09;;;;;;;3.88;1.42;;;8.90;99.90;;;;;;4986466;28;20397;-87
2022/11/18 00:02:37;;;;;;;4.15;1.85;;;8.90;99.90;;;;;;4983254;28;20061;-87
2022/11/18 00:05:06;;;;;;;4.72;1.60;;;8.90;99.90;;;;;;4975292;28;20038;-87
2022/11/18 00:07:32;;;;;;;2.42;0.95;;;9.00;99.90;;;;;;4991595;28;20054;-87
2022/11/18 00:09:58;;;;;;;3.38;1.00;;;9.00;99.90;;;;;;4990838;28;20069;-87
2022/11/18 00:15:08;;;;;;;2.17;1.17;;;8.80;99.90;;;;;;4993232;28;20473;-86
2022/11/18 00:17:38;;;;;;;3.28;1.20;;;8.70;99.90;;;;;;4992732;28;20097;-88
2022/11/18 00:20:03;;;;;;;3.33;1.60;;;8.70;99.90;;;;;;4991361;28;20438;-87
2022/11/18 00:22:29;;;;;;;4.55;1.45;;;8.60;99.90;;;;;;4993100;28;20034;-87
2022/11/18 00:24:55;;;;;;;4.80;1.80;;;8.60;99.90;;;;;;4982958;28;20485;-88
2022/11/18 00:27:20;;;;;;;4.07;1.70;;;8.60;99.90;;;;;;4991319;28;20085;-87
2022/11/18 00:29:46;;;;;;;3.65;1.50;;;8.50;99.90;;;;;;4991659;28;20105;-87
2022/11/18 00:32:11;;;;;;;5.60;1.70;;;8.50;99.90;;;;;;4991370;28;20073;-87
2022/11/18 00:34:37;;;;;;;2.53;1.25;;;8.50;99.90;;;;;;4992571;28;20022;-88
2022/11/18 00:37:03;;;;;;;4.60;1.77;;;8.40;99.90;;;;;;4978875;28;20030;-88
2022/11/18 00:39:29;;;;;;;4.63;1.90;;;8.50;99.90;;;;;;4995079;28;20029;-88
2022/11/18 00:44:40;;;;;;;4.65;1.55;;;8.50;99.90;;;;;;4996251;28;20037;-88
2022/11/18 00:47:05;;;;;;;4.13;1.30;;;8.40;99.90;;;;;;4993096;28;20023;-88
2022/11/18 00:49:31;;;;;;;2.80;1.30;;;8.40;99.90;;;;;;4991011;28;20034;-88
2022/11/18 00:51:57;;;;;;;4.68;1.85;;;8.40;99.90;;;;;;4994069;28;20042;-88
2022/11/18 00:54:22;;;;;;;4.93;1.20;;;8.50;99.90;;;;;;4986560;28;20081;-88
2022/11/18 00:56:48;;;;;;;3.42;1.45;;;8.40;99.90;;;;;;4990384;28;20031;-89
2022/11/18 00:59:14;;;;;;;5.32;1.42;;;8.50;99.90;;;;;;4994996;28;20077;-86
2022/11/18 01:01:39;;;;;;;4.18;1.60;;;8.50;99.90;;;;;;4993834;28;20042;-87
2022/11/18 01:04:05;;;;;;;3.55;1.38;;;8.50;99.90;;;;;;4991470;28;20080;-87
2022/11/18 01:06:31;;;;;;;3.30;1.10;;;8.60;99.90;;;;;;4994408;28;20026;-87
2022/11/18 01:08:56;;;;;;;2.53;1.20;;;8.60;99.90;;;;;;4986620;28;20390;-88
2022/11/18 01:14:06;;;;;;;2.40;0.93;;;8.70;99.90;;;;;;4987173;28;20038;-87
2022/11/18 01:16:32;;;;;;;1.55;0.80;;;8.70;99.90;;;;;;4993518;28;20026;-88
2022/11/18 01:18:58;;;;;;;3.92;1.77;;;8.70;99.90;;;;;;4993824;28;20133;-89
2022/11/18 01:21:24;;;;;;;3.65;1.13;;;8.70;99.90;;;;;;4991853;28;20033;-88
2022/11/18 01:23:50;;;;;;;2.67;1.00;;;8.80;99.90;;;;;;4995271;28;20425;-88
2022/11/18 01:26:16;;;;;;;4.07;1.70;;;8.80;99.90;;;;;;4994325;28;20080;-89
2022/11/18 01:28:42;;;;;;;2.53;1.23;;;8.80;99.90;;;;;;4976899;28;20069;-87
2022/11/18 01:31:17;;;;;;;3.85;1.33;;;8.80;99.90;;;;;;4996011;28;20022;-87
2022/11/18 01:33:44;;;;;;;2.88;1.25;;;8.80;99.90;;;;;;4995323;28;20022;-89
2022/11/18 01:36:25;;;;;;;4.75;1.35;;;8.80;99.90;;;;;;4978219;28;20058;-88
2022/11/18 01:38:51;;;;;;;4.43;1.42;;;8.80;99.90;;;;;;4988937;28;20047;-89
2022/11/18 01:41:18;;;;;;;3.72;1.52;;;8.80;99.90;;;;;;4995778;28;20098;-88
2022/11/18 01:44:24;;;;;;;3.58;1.50;;;8.80;99.90;;;;;;4993888;28;20022;-88
2022/11/18 01:46:50;;;;;;;3.22;1.23;;;8.80;99.90;;;;;;4992893;28;20057;-88
2022/11/18 01:49:16;;;;;;;3.70;1.30;;;8.80;99.90;;;;;;4991150;28;20054;-87
2022/11/18 01:51:45;;;;;;;3.25;1.40;;;8.80;99.90;;;;;;4993142;28;20434;-87
2022/11/18 01:54:22;;;;;;;3.58;1.55;;;8.80;99.90;;;;;;4994364;28;20441;-87
2022/11/18 01:56:52;;;;;;;3.25;1.40;;;8.80;99.90;;;;;;4994642;28;20054;-87
2022/11/18 01:59:23;;;;;;;2.67;1.50;;;8.80;99.90;;;;;;4993127;28;20561;-87
2022/11/18 02:01:49;;;;;;;4.60;1.30;;;8.80;99.90;;;;;;5005605;28;20089;-87
2022/11/18 02:04:15;;;;;;;4.43;1.50;;;8.80;99.90;;;;;;5014621;28;20057;-87
2022/11/18 02:06:43;;;;;;;3.05;1.20;;;8.80;99.90;;;;;;4997593;28;20030;-86
2022/11/18 02:09:09;;;;;;;3.55;1.33;;;8.80;99.90;;;;;;5005778;28;20475;-87
2022/11/18 02:11:50;;;;;;;3.10;1.27;;;8.80;99.90;;;;;;5011368;28;20026;-86
2022/11/18 02:14:19;;;;;;;3.08;1.38;;;8.80;99.90;;;;;;4997639;28;20022;-86
2022/11/18 02:17:22;;;;;;;3.58;1.30;;;8.80;99.90;;;;;;4985271;28;20485;-86
2022/11/18 02:20:12;;;;;;;5.35;1.45;;;8.70;99.90;;;;;;5014838;28;20034;-86
2022/11/18 02:23:09;;;;;;;2.15;0.98;;;8.70;99.90;;;;;;5015128;28;20077;-87
2022/11/18 02:26:12;;;;;;;3.33;1.08;;;8.70;99.90;;;;;;4998393;28;20117;-86
2022/11/18 02:29:10;;;;;;;2.75;1.35;;;8.80;99.90;;;;;;4987343;28;20494;-86
2022/11/18 02:31:45;;;;;;;2.55;1.00;;;8.80;99.90;;;;;;5002227;28;20478;-86
2022/11/18 02:34:24;;;;;;;3.03;1.25;;;8.80;99.90;;;;;;4989387;28;20027;-86
2022/11/18 02:36:58;;;;;;;3.05;1.30;;;8.80;99.90;;;;;;5012593;28;20037;-86
2022/11/18 02:39:47;;;;;;;2.53;1.17;;;8.80;99.90;;;;;;5014318;28;20438;-87
2022/11/18 02:42:14;;;;;;;2.92;1.20;;;8.80;99.90;;;;;;4999356;28;20096;-86
2022/11/18 02:44:45;;;;;;;1.75;1.02;;;8.80;99.90;;;;;;4997284;28;20108;-87
2022/11/18 02:47:14;;;;;;;2.58;1.20;;;8.90;99.90;;;;;;4997202;28;20034;-86
2022/11/18 02:49:49;;;;;;;2.17;1.10;;;8.90;99.90;;;;;;5002731;28;20037;-86
2022/11/18 02:52:16;;;;;;;2.85;1.30;;;8.90;99.90;;;;;;5014175;28;20022;-86
2022/11/18 02:54:45;;;;;;;3.25;1.17;;;8.90;99.90;;;;;;4980912;28;20415;-87
2022/11/18 02:57:12;;;;;;;2.95;1.25;;;8.90;99.90;;;;;;4984319;28;20030;-86
2022/11/18 02:59:38;;;;;;;3.85;1.30;;;8.90;99.90;;;;;;5009860;28;20049;-88
2022/11/18 03:02:04;;;;;;;4.13;1.20;;;8.90;99.90;;;;;;4995797;28;20054;-86
2022/11/18 03:04:31;;;;;;;2.50;1.23;;;8.90;99.90;;;;;;5012555;28;20022;-87
2022/11/18 03:07:25;;;;;;;3.03;1.20;;;9.00;99.90;;;;;;5003289;28;20018;-87
2022/11/18 03:09:52;;;;;;;2.28;1.40;;;9.00;99.90;;;;;;4990542;28;20030;-87
2022/11/18 03:12:37;;;;;;;2.70;1.15;;;9.00;99.90;;;;;;4998986;28;20034;-86
2022/11/18 03:15:31;;;;;;;3.42;1.20;;;9.00;99.90;;;;;;5000570;28;20037;-87
2022/11/18 03:18:19;;;;;;;3.17;1.55;;;9.00;99.90;;;;;;5011970;28;20041;-86
2022/11/18 03:21:14;;;;;;;3.35;1.50;;;9.00;99.90;;;;;;4995664;28;20038;-86
2022/11/18 03:23:46;;;;;;;3.17;1.55;;;9.00;99.90;;;;;;4973100;28;20038;-87
2022/11/18 03:26:19;;;;;;;2.50;1.20;;;9.00;99.90;;;;;;5013762;28;20485;-86
2022/11/18 03:28:47;;;;;;;4.00;1.70;;;9.00;99.90;;;;;;5009064;28;20183;-87
2022/11/18 03:31:28;;;;;;;2.60;1.38;;;9.00;99.90;;;;;;4996521;28;20034;-86
2022/11/18 03:34:05;;;;;;;2.25;1.23;;;9.00;99.90;;;;;;4996105;28;20029;-88
2022/11/18 03:36:39;;;;;;;4.25;1.55;;;9.10;99.90;;;;;;4976583;28;20030;-87
2022/11/18 03:39:08;;;;;;;5.93;1.48;;;9.10;99.90;;;;;;5009586;28;20425;-87
2022/11/18 03:41:39;;;;;;;3.67;1.33;;;9.00;99.90;;;;;;4996280;28;20025;-87
2022/11/18 03:44:17;;;;;;;3.15;1.48;;;9.10;99.90;;;;;;5009459;28;20037;-87
2022/11/18 03:46:49;;;;;;;3.25;1.30;;;9.10;99.90;;;;;;5006128;28;20022;-88
2022/11/18 03:49:43;;;;;;;2.72;1.30;;;9.10;99.90;;;;;;4983007;28;20077;-87
2022/11/18 03:52:25;;;;;;;3.28;1.40;;;9.10;99.90;;;;;;5008508;28;20153;-87
2022/11/18 03:54:53;;;;;;;4.28;1.30;;;9.10;99.90;;;;;;5013233;28;20022;-86
2022/11/18 03:57:35;;;;;;;4.10;1.20;;;9.00;99.90;;;;;;5008631;28;20018;-87
2022/11/18 04:00:13;;;;;;;2.30;1.17;;;8.90;99.90;;;;;;4995602;28;20034;-87
2022/11/18 04:02:39;;;;;;;3.40;1.30;;;8.90;99.90;;;;;;5012962;28;20494;-87
2022/11/18 04:05:09;;;;;;;2.88;1.38;;;8.90;99.90;;;;;;4995751;28;20026;-87
2022/11/18 04:07:57;;;;;;;2.30;1.10;;;8.80;99.90;;;;;;5013332;28;20037;-87
2022/11/18 04:10:47;;;;;;;3.38;1.30;;;8.80;99.90;;;;;;5015484;28;20041;-87
2022/11/18 04:13:33;;;;;;;2.13;1.20;;;8.80;99.90;;;;;;5002497;28;20041;-87
2022/11/18 04:15:59;;;;;;;2.00;1.00;;;8.80;99.90;;;;;;4999588;28;20458;-88
2022/11/18 04:18:26;;;;;;;3.17;1.33;;;8.80;99.90;;;;;;5000808;28;20029;-87
2022/11/18 04:20:52;;;;;;;3.17;1.08;;;8.80;99.90;;;;;;5016906;28;20101;-87
2022/11/18 04:23:18;;;;;;;4.20;1.30;;;8.90;99.90;;;;;;4999444;28;20088;-88
2022/11/18 04:25:44;;;;;;;3.42;1.08;;;8.90;99.90;;;;;;5017220;28;20029;-88
2022/11/18 04:28:10;;;;;;;2.25;1.10;;;8.90;99.90;;;;;;4982461;28;20026;-87
2022/11/18 04:30:36;;;;;;;2.15;1.00;;;8.90;99.90;;;;;;4999265;28;20029;-89
2022/11/18 04:33:02;;;;;;;2.75;1.30;;;8.90;99.90;;;;;;5000818;28;20029;-87
2022/11/18 04:35:28;;;;;;;2.72;1.20;;;8.90;99.90;;;;;;5005585;28;20463;-89
2022/11/18 04:37:53;;;;;;;3.42;1.73;;;8.90;99.90;;;;;;5006643;28;20010;-88
2022/11/18 04:40:19;;;;;;;1.38;0.80;;;8.90;99.90;;;;;;4991242;28;20448;-88
2022/11/18 04:42:45;;;;;;;3.03;1.33;;;8.90;99.90;;;;;;4985650;28;20462;-89
2022/11/18 04:45:11;;;;;;;3.47;1.20;;;8.90;99.90;;;;;;5016468;28;20378;-88
2022/11/18 04:47:37;;;;;;;2.72;1.20;;;8.90;99.90;;;;;;4998125;28;20044;-87
2022/11/18 04:50:03;;;;;;;3.45;1.17;;;8.90;99.90;;;;;;4999315;28;20545;-87
2022/11/18 04:52:29;;;;;;;2.63;1.25;;;8.90;99.90;;;;;;4998469;28;20105;-87
2022/11/18 04:54:55;;;;;;;1.52;1.00;;;8.90;99.90;;;;;;4999228;28;20109;-87
2022/11/18 04:57:20;;;;;;;2.97;1.10;;;8.80;99.90;;;;;;4998867;28;20030;-87
2022/11/18 04:59:46;;;;;;;3.03;1.23;;;8.80;99.90;;;;;;4999325;28;20084;-87
2022/11/18 05:02:12;;;;;;;3.63;1.70;;;8.90;99.90;;;;;;4993973;28;20137;-87
2022/11/18 05:04:45;;;;;;;3.10;1.50;;;8.80;99.90;;;;;;4994889;28;20034;-87
2022/11/18 05:07:14;;;;;;;4.25;1.80;;;8.90;99.90;;;;;;4995004;28;20026;-86
2022/11/18 05:09:58;;;;;;;4.78;2.00;;;8.80;99.90;;;;;;4996352;28;20085;-89
2022/11/18 05:15:09;;;;;;;6.00;1.50;;;8.90;99.90;;;;;;4996639;28;20412;-88
2022/11/18 05:17:35;;;;;;;4.07;1.50;;;8.90;99.90;;;;;;4994005;28;20532;-88
2022/11/18 05:20:00;;;;;;;3.83;1.95;;;8.90;99.90;;;;;;4992939;28;20038;-88
2022/11/18 05:22:26;;;;;;;3.78;1.67;;;8.90;99.90;;;;;;4983680;28;20035;-88
2022/11/18 05:24:52;;;;;;;4.25;2.15;;;8.90;99.90;;;;;;4994828;28;20027;-88
2022/11/18 05:27:20;;;;;;;4.38;1.80;;;8.90;99.90;;;;;;4995445;28;20475;-87
2022/11/18 05:29:46;;;;;;;4.18;1.70;;;8.90;99.90;;;;;;4983242;28;20038;-88
2022/11/18 05:32:11;;;;;;;6.18;2.20;;;8.90;99.90;;;;;;4994866;28;20029;-87
2022/11/18 05:34:41;;;;;;;3.55;1.83;;;8.80;99.90;;;;;;4993672;28;20018;-88
2022/11/18 05:37:06;;;;;;;3.63;1.83;;;8.80;99.90;;;;;;4982230;28;20019;-88
2022/11/18 05:39:35;;;;;;;4.28;1.95;;;8.80;99.90;;;;;;4993400;28;20034;-87
2022/11/18 05:44:45;;;;;;;2.90;1.50;;;8.80;99.90;;;;;;4995650;28;20069;-88
2022/11/18 05:47:11;;;;;;;2.13;1.30;;;8.80;99.90;;;;;;4993837;28;20034;-88
2022/11/18 05:49:36;;;;;;;2.20;1.40;;;8.80;99.90;;;;;;4994284;28;20030;-88
2022/11/18 05:52:05;;;;;;;3.05;1.35;;;8.80;99.90;;;;;;4994084;28;20554;-88
2022/11/18 05:54:31;;;;;;;3.65;1.60;;;8.80;99.90;;;;;;4994290;28;20034;-88
2022/11/18 05:56:57;;;;;;;3.08;1.60;;;8.80;99.90;;;;;;4995928;28;20034;-88
2022/11/18 05:59:30;;;;;;;;;;;8.70;99.90;;;;;;4996097;28;20035;-88
2022/11/18 06:01:58;;;;;;;1.60;1.25;;;8.70;99.90;;;;;;4991730;28;19918;-88
2022/11/18 06:04:49;;;;;;;2.13;1.10;;;8.60;99.90;;;;;;5006236;28;20101;-87
2022/11/18 06:07:21;;;;;;;2.15;1.15;;;8.60;99.90;;;;;;4991095;28;20100;-89
2022/11/18 06:09:53;;;;;;;2.80;1.20;;;8.50;99.90;;;;;;4994804;28;20492;-88
2022/11/18 06:12:24;;;;;;;2.83;1.48;;;8.50;99.90;;;;;;4981025;28;20053;-87
2022/11/18 06:14:57;;;;;;;2.15;1.27;;;8.40;99.90;;;;;;4996198;28;20042;-86
2022/11/18 06:17:30;;;;;;;2.15;1.15;;;8.30;99.90;;;;;;4995055;28;20046;-87
2022/11/18 06:19:57;;;;;;;2.70;1.30;;;8.20;99.90;;;;;;4999911;28;20358;-87
2022/11/18 06:22:23;;;;;;;2.85;1.10;;;8.10;99.90;;;;;;5000791;28;20109;-88
2022/11/18 06:24:57;;;;;;;1.80;1.10;;;8.10;99.90;;;;;;5013623;28;20053;-87
2022/11/18 06:27:25;;;;;;;2.55;1.13;;;8.00;99.90;;;;;;4990030;28;20034;-87
2022/11/18 06:29:50;;;;;;;2.03;1.20;;;8.00;99.90;;;;;;4990314;28;20036;-88
2022/11/18 06:32:18;;;;;;;3.38;1.33;;;7.90;99.90;;;;;;4999878;28;20113;-88
2022/11/18 06:34:44;;;;;;;2.45;0.95;;;7.90;99.90;;;;;;5002028;28;20378;-88
2022/11/18 06:37:21;;;;;;;2.28;1.33;;;7.90;99.90;;;;;;5013916;28;20057;-88
2022/11/18 06:39:46;;;;;;;2.45;1.27;;;7.80;99.90;;;;;;5009283;28;20518;-88
2022/11/18 06:45:09;;;;;;;3.25;1.40;;;7.70;99.90;;;;;;5006483;28;20089;-88
2022/11/18 06:47:35;;;;;;;2.45;1.15;;;7.70;99.90;;;;;;4991755;28;20095;-88
2022/11/18 06:50:01;;;;;;;2.78;1.20;;;7.80;99.90;;;;;;4996601;28;20066;-88
2022/11/18 06:52:33;;;;;;;3.47;1.40;;;7.70;99.90;;;;;;4990162;28;20110;-87
2022/11/18 06:55:12;;;;;;;3.97;1.38;;;7.70;99.90;;;;;;5006985;28;20033;-88
2022/11/18 06:57:39;;;;;;;2.63;1.23;;;7.70;99.90;;;;;;4991338;28;20056;-89
2022/11/18 07:00:06;;;;;;;2.08;1.17;;;7.70;99.90;;;;;;4994469;28;20025;-89
2022/11/18 07:02:37;;;;;;;2.67;1.30;;;7.70;99.90;;;;;;4990335;28;20072;-88
2022/11/18 07:05:04;;;;;;;2.95;1.30;;;7.70;99.90;;;;;;4991470;28;20060;-88
2022/11/18 07:07:49;;;;;;;2.92;1.33;;;7.60;99.90;;;;;;4998159;28;20573;-89
2022/11/18 07:10:27;;;;;;;3.35;1.90;;;7.70;99.90;;;;;;5005793;28;20037;-89
2022/11/18 07:12:53;;;;;;;3.20;1.50;;;7.50;99.90;;;;;;4987983;28;20036;-90
2022/11/18 07:15:19;;;;;;;2.40;1.30;;;7.50;99.90;;;;;;4998785;28;20022;-88
2022/11/18 07:17:45;;;;;;;3.30;1.30;;;7.50;99.90;;;;;;5012903;28;20054;-89
2022/11/18 07:20:13;;;;;;;2.80;1.27;;;7.50;99.90;;;;;;4995845;28;20540;-89
2022/11/18 07:22:59;;;;;;;2.53;1.25;;;7.40;99.90;;;;;;4992371;28;20033;-88
2022/11/18 07:26:11;;;;;;;3.47;1.40;;;7.40;99.90;;;;;;4993841;28;20053;-88
2022/11/18 07:28:49;;;;;;;3.22;1.30;;;7.40;99.90;;;;;;4981087;28;20056;-88
2022/11/18 07:31:20;;;;;;;2.75;1.50;;;7.50;99.90;;;;;;5003903;28;20030;-89
2022/11/18 07:33:47;;;;;;;1.73;1.00;;;7.50;99.90;;;;;;5001337;28;20037;-91
2022/11/18 07:36:25;;;;;;;2.58;1.30;;;7.50;99.90;;;;;;4998811;28;20026;-89
2022/11/18 07:38:58;;;;;;;3.17;1.60;;;7.60;99.90;;;;;;4998772;28;20486;-89
2022/11/18 07:41:39;;;;;;;;;;;;;;;;;;;;;
2022/11/18 07:44:19;;;;;;;2.45;1.40;;;7.70;99.90;;;;;;5011901;28;20028;-89
2022/11/18 07:46:50;;;;;;;3.13;1.80;;;7.70;99.90;;;;;;4993768;28;20034;-88
2022/11/18 07:49:19;;;;;;;4.75;2.05;;;7.80;99.90;;;;;;4994876;28;20042;-90
2022/11/18 07:51:53;;;;;;;3.85;1.95;;;7.80;99.90;;;;;;4978789;28;20470;-87
2022/11/18 07:54:22;;;;;;;5.95;1.90;;;7.90;99.90;;;;;;4989321;28;20025;-88
2022/11/18 07:56:53;;;;;;;4.55;2.08;;;7.90;99.90;;;;;;4997124;28;20470;-90
2022/11/18 07:59:20;;;;;;;3.63;1.88;;;7.90;99.90;;;;;;4999483;28;20057;-87
2022/11/18 08:01:52;;;;;;;5.70;1.98;;;8.00;99.90;;;;;;5011895;28;20037;-88
2022/11/18 08:04:23;;;;;;;3.95;2.13;;;8.00;99.90;;;;;;5012393;28;20038;-87
2022/11/18 08:06:49;;;;;;;4.82;2.10;;;8.00;99.90;;;;;;4987233;28;20030;-87
2022/11/18 08:09:34;;;;;;;4.68;2.13;;;8.00;99.90;;;;;;5000495;28;20072;-88
2022/11/18 08:12:02;;;;;;;4.45;2.13;;;8.10;99.90;;;;;;4992260;28;20022;-88
2022/11/18 08:14:53;;;;;;;5.10;2.38;;;8.10;99.90;;;;;;4995538;28;20022;-87
2022/11/18 08:17:24;;;;;;;4.50;2.08;;;8.20;99.90;;;;;;4982069;28;20110;-86
2022/11/18 08:19:57;;;;;;;5.80;2.45;;;8.30;99.90;;;;;;5008462;28;20394;-88
2022/11/18 08:22:26;;;;;;;3.78;2.15;;;8.30;99.90;;;;;;4999057;28;20034;-88
2022/11/18 08:24:52;;;;;;;4.10;2.30;;;8.40;99.90;;;;;;4994916;28;20045;-87
2022/11/18 08:27:20;;;;;;;3.58;2.10;;;8.50;99.90;;;;;;4983852;28;20053;-86
2022/11/18 08:29:49;;;;;;;3.55;2.20;;;8.50;99.90;;;;;;5011732;28;20485;-86
2022/11/18 08:32:23;;;;;;;6.15;2.33;;;8.60;99.90;;;;;;4995966;28;20018;-86
2022/11/18 08:34:50;;;;;;;4.55;2.90;;;8.60;99.90;;;;;;4989342;28;20080;-87
2022/11/18 08:37:16;;;;;;;5.30;2.75;;;8.70;99.90;;;;;;4998424;28;20394;-87
2022/11/18 08:39:47;;;;;;;6.28;2.90;;;8.70;99.90;;;;;;5005592;28;20120;-87
2022/11/18 08:42:13;;;;;;;3.47;2.33;;;8.80;99.90;;;;;;4997785;28;20034;-88
2022/11/18 08:44:38;;;;;;;3.50;2.22;;;8.80;99.90;;;;;;4993921;28;20072;-87
2022/11/18 08:47:12;;;;;;;4.80;2.55;;;9.00;99.90;;;;;;4998614;28;20493;-87
2022/11/18 08:49:48;;;;;;;4.40;2.90;;;9.80;99.90;;;;;;5001110;28;20030;-87
2022/11/18 08:52:26;;;;;;;;;;;;;;;;;;;;;
2022/11/18 08:55:51;;;;;;;4.75;2.95;;;11.10;99.90;;;;;;5006492;28;20595;-87
2022/11/18 09:01:10;;;;;;;6.43;2.55;;;12.10;99.90;;;;;;5001866;28;20381;-87
2022/11/18 09:03:39;;;;;;;4.07;2.13;;;13.50;99.90;;;;;;4998245;28;20048;-87
2022/11/18 09:06:33;;;;;;;5.70;2.20;;;14.50;99.90;;;;;;5005989;28;20081;-87
2022/11/18 09:09:19;;;;;;;3.90;2.13;;;15.50;99.90;;;;;;4993212;28;20045;-87
2022/11/18 09:12:13;;;;;;;;;;;;;;;;;;;;;
2022/11/18 09:15:23;;;;;;;3.42;1.38;;;16.90;99.90;;;;;;5015099;28;20030;-85
2022/11/18 09:17:49;;;;;;;3.63;1.48;;;17.40;99.90;;;;;;4967646;28;20042;-87
2022/11/18 09:20:16;;;;;;;3.28;1.55;;;17.80;99.90;;;;;;5010260;28;20034;-87
2022/11/18 09:22:59;;;;;;;3.92;1.50;;;18.20;99.90;;;;;;4997390;28;20034;-87
2022/11/18 09:28:21;;;;;;;3.92;1.48;;;18.60;99.90;;;;;;4988624;28;20044;-87
2022/11/18 09:31:49;;;;;;;3.72;1.50;;;18.70;99.90;;;;;;4989932;28;20053;-87
2022/11/18 09:34:42;;;;;;;2.83;1.58;;;18.80;99.90;;;;;;4979365;28;20033;-87
2022/11/18 09:37:13;;;;;;;3.17;1.30;;;19.10;99.90;;;;;;5013799;28;20378;-87
2022/11/18 09:39:59;;;;;;;1.90;1.13;;;19.50;99.90;;;;;;4996969;28;20034;-86
2022/11/18 09:46:02;;;;;;;2.67;1.23;;;19.50;99.90;;;;;;5002366;28;20384;-86
2022/11/18 09:51:25;;;;;;;3.78;1.85;;;18.30;99.90;;;;;;5015508;28;20114;-87
2022/11/18 09:54:00;;;;;;;3.00;1.60;;;17.40;99.90;;;;;;5013996;28;20041;-86
2022/11/18 09:56:26;;;;;;;4.15;2.05;;;17.20;99.90;;;;;;5014004;28;20018;-86
2022/11/18 09:58:58;;;;;;;3.50;1.70;;;17.10;99.90;;;;;;5014834;28;20048;-86
2022/11/18 10:01:28;;;;;;;2.70;1.40;;;17.60;99.90;;;;;;5014695;28;20088;-87
2022/11/18 10:04:02;;;;;;;3.50;1.48;;;17.40;99.90;;;;;;5014914;28;20057;-86
2022/11/18 10:06:34;;;;;;;3.22;1.30;;;17.90;99.90;;;;;;5014016;28;20062;-87
2022/11/18 10:09:24;;;;;;;3.67;1.98;;;17.70;99.90;;;;;;5011440;28;20057;-87
2022/11/18 10:12:45;;;;;;;2.92;1.70;;;17.70;99.90;;;;;;5008440;28;20475;-86
2022/11/18 10:15:31;;;;;;;5.43;1.60;;;17.80;99.90;;;;;;4983197;28;20046;-86
2022/11/18 10:18:09;;;;;;;3.50;1.70;;;17.70;99.90;;;;;;5015012;28;20481;-87
2022/11/18 10:23:45;;;;;;;3.95;1.55;;;17.60;99.90;;;;;;5002164;28;20080;-87
2022/11/18 10:26:11;;;;;;;3.50;1.90;;;17.30;99.90;;;;;;5009363;28;20053;-86
2022/11/18 10:29:11;;;;;;;;;;;;;;;;;;;;;
2022/11/18 10:32:06;;;;;;;3.88;1.35;;;17.80;99.90;;;;;;4998368;28;20470;-86
2022/11/18 10:34:52;;;;;;;4.70;1.50;;;18.10;99.90;;;;;;5013009;28;20033;-86
2022/11/18 10:37:22;;;;;;;4.65;1.50;;;18.20;99.90;;;;;;5012740;28;20025;-87
2022/11/18 10:39:59;;;;;;;3.53;1.73;;;18.30;99.90;;;;;;5014170;28;20030;-88
2022/11/18 10:42:49;;;;;;;3.35;1.60;;;18.40;99.90;;;;;;5012238;28;20033;-86
2022/11/18 10:45:33;;;;;;;3.90;1.80;;;18.50;99.90;;;;;;5000254;28;20077;-85
2022/11/18 10:48:19;;;;;;;2.38;1.30;;;18.50;99.90;;;;;;5002465;28;20030;-86
2022/11/18 10:50:49;;;;;;;3.03;1.70;;;17.90;99.90;;;;;;5008110;28;20045;-86
2022/11/18 10:53:39;;;;;;;3.63;1.65;;;17.30;99.90;;;;;;4993628;28;20109;-86
2022/11/18 10:56:50;;;;;;;4.13;1.15;;;16.70;99.90;;;;;;5012943;28;20369;-86
2022/11/18 10:59:50;;;;;;;4.20;1.27;;;16.40;99.90;;;;;;4987078;28;20042;-86
2022/11/18 11:02:33;;;;;;;2.97;1.42;;;16.30;99.90;;;;;;5013638;28;20097;-86
2022/11/18 11:05:17;;;;;;;2.58;1.45;;;16.50;99.90;;;;;;5014016;28;20022;-86
2022/11/18 11:07:43;;;;;;;3.33;1.40;;;17.40;99.90;;;;;;5012098;28;20029;-87
2022/11/18 11:10:12;;;;;;;2.83;1.38;;;18.00;99.90;;;;;;5011757;28;20108;-87
2022/11/18 11:12:56;;;;;;;4.28;1.60;;;18.80;99.90;;;;;;5012286;28;20025;-88
2022/11/18 11:15:40;;;;;;;5.07;1.58;;;19.20;99.90;;;;;;4999534;28;20049;-86
2022/11/18 11:18:40;;;;;;;3.80;1.48;;;18.80;99.90;;;;;;5012546;28;20036;-86
2022/11/18 11:21:41;;;;;;;4.68;1.52;;;17.70;99.90;;;;;;5012170;28;20025;-86
2022/11/18 11:24:13;;;;;;;2.05;1.30;;;16.40;99.90;;;;;;4971622;28;20124;-86
2022/11/18 11:27:17;;;;;;;3.70;2.05;;;15.80;99.90;;;;;;5000020;28;20016;-86
2022/11/18 11:30:10;;;;;;;5.43;2.22;;;15.20;99.90;;;;;;5011953;28;20033;-86
2022/11/18 11:33:18;;;;;;;3.60;1.98;;;14.70;99.90;;;;;;5013000;28;20030;-86
2022/11/18 11:36:06;;;;;;;4.43;1.88;;;14.20;99.90;;;;;;5011180;28;20116;-86
2022/11/18 11:38:53;;;;;;;4.38;1.67;;;14.30;99.90;;;;;;5011760;28;20041;-86
2022/11/18 11:41:29;;;;;;;5.05;1.88;;;14.70;99.90;;;;;;4999654;28;20049;-85
2022/11/18 11:44:32;;;;;;;3.53;1.52;;;14.90;99.90;;;;;;4995572;28;20083;-85
2022/11/18 11:49:53;;;;;;;3.10;1.48;;;14.60;99.90;;;;;;5013625;28;20272;-85
2022/11/18 11:52:42;;;;;;;3.95;1.35;;;14.30;99.90;;;;;;5013168;28;20033;-85
2022/11/18 11:55:30;;;;;;;3.60;1.70;;;14.00;99.90;;;;;;5011544;28;20076;-88
2022/11/18 11:58:36;;;;;;;4.47;1.60;;;14.00;99.90;;;;;;5012987;28;20026;-85
2022/11/18 12:01:20;;;;;;;3.38;1.45;;;14.00;99.90;;;;;;4990831;28;20097;-85
2022/11/18 12:04:29;;;;;;;4.13;1.20;;;13.90;99.90;;;;;;5012145;28;20497;-85
2022/11/18 12:07:02;;;;;;;4.00;1.45;;;13.70;99.90;;;;;;5002204;28;20022;-85
2022/11/18 12:09:32;;;;;;;2.35;1.30;;;13.50;99.90;;;;;;5012831;28;20033;-85
2022/11/18 12:12:35;;;;;;;2.67;1.40;;;13.30;99.90;;;;;;5012662;28;20018;-85
2022/11/18 12:15:17;;;;;;;2.72;1.20;;;13.20;99.90;;;;;;4981258;28;20397;-84
2022/11/18 12:18:13;;;;;;;3.55;1.25;;;13.00;99.90;;;;;;5012031;28;20037;-85
2022/11/18 12:21:01;;;;;;;2.88;1.17;;;13.00;99.90;;;;;;5006031;28;20042;-85
2022/11/18 12:23:31;;;;;;;3.38;1.55;;;12.90;99.90;;;;;;5003251;28;20030;-85
2022/11/18 12:26:10;;;;;;;2.78;1.40;;;12.90;99.90;;;;;;5011036;28;20172;-87
2022/11/18 12:29:15;;;;;;;3.30;1.20;;;13.00;99.90;;;;;;5011442;28;20174;-84
2022/11/18 12:31:41;;;;;;;3.55;1.75;;;13.10;99.90;;;;;;5001847;28;20096;-84
2022/11/18 12:34:31;;;;;;;3.33;1.80;;;13.10;99.90;;;;;;5015001;28;20037;-84
2022/11/18 12:37:26;;;;;;;2.92;1.40;;;13.00;99.90;;;;;;5016115;28;20030;-85
2022/11/18 12:40:01;;;;;;;3.38;1.50;;;13.10;99.90;;;;;;5013953;28;20026;-85
2022/11/18 12:45:43;;;;;;;4.50;1.95;;;13.00;99.90;;;;;;5015830;28;20068;-85
2022/11/18 12:48:38;;;;;;;5.03;1.98;;;12.90;99.90;;;;;;5014759;28;20124;-84
2022/11/18 12:51:17;;;;;;;3.17;1.73;;;12.80;99.90;;;;;;5002791;28;20085;-85
2022/11/18 12:53:52;;;;;;;2.70;1.70;;;12.80;99.90;;;;;;5014890;28;20059;-87
2022/11/18 12:56:33;;;;;;;4.18;1.95;;;12.70;99.90;;;;;;5016482;28;20068;-88
2022/11/18 12:59:08;;;;;;;3.63;1.77;;;12.70;99.90;;;;;;5014374;28;20041;-86
2022/11/18 13:01:42;;;;;;;3.58;2.22;;;12.60;99.90;;;;;;5014336;28;20034;-87
2022/11/18 13:04:18;;;;;;;4.03;2.30;;;12.60;99.90;;;;;;5015706;28;20101;-85
2022/11/18 13:06:46;;;;;;;3.83;1.80;;;12.50;99.90;;;;;;5008069;28;20025;-87
2022/11/18 13:09:22;;;;;;;4.47;1.98;;;12.50;99.90;;;;;;5013926;28;20030;-86
2022/11/18 13:12:34;;;;;;;4.32;1.80;;;12.40;99.90;;;;;;4998597;28;20038;-87
2022/11/18 13:18:32;;;;;;;2.95;1.23;;;12.40;99.90;;;;;;5014279;28;20092;-85
2022/11/18 13:23:54;;;;;;;2.63;1.23;;;12.40;99.90;;;;;;5012648;28;20041;-86
2022/11/18 13:26:29;;;;;;;5.40;1.98;;;12.40;99.90;;;;;;5011751;28;20032;-87
2022/11/18 13:29:31;;;;;;;4.00;1.40;;;12.30;99.90;;;;;;5013492;28;20093;-88
2022/11/18 13:32:51;;;;;;;6.78;2.22;;;12.30;99.90;;;;;;4956597;28;20051;-87
2022/11/18 13:35:56;;;;;;;;;;;;;;;;;;;;;
2022/11/18 13:41:44;;;;;;;4.20;1.65;;;12.40;99.90;;;;;;4951089;28;20039;-86
2022/11/18 13:44:31;;;;;;;5.88;1.70;;;12.50;99.90;;;;;;4965347;28;20627;-86
2022/11/18 13:47:03;;;;;;;1.95;1.30;;;12.70;99.90;;;;;;4966893;28;20390;-89
2022/11/18 13:50:52;;;;;;;;;;;;;;;;;;;;;
2022/11/18 13:53:53;;;;;;;;;;;;;;;;;;;;;
2022/11/18 13:57:00;;;;;;;2.97;1.38;;;12.90;99.90;;;;;;4968632;28;20029;-87
2022/11/18 13:59:32;;;;;;;3.10;1.48;;;12.80;99.90;;;;;;4973073;28;20038;-88
2022/11/18 14:02:47;;;;;;;3.17;1.20;;;12.70;99.90;;;;;;4969529;28;20059;-88
2022/11/18 14:05:34;;;;;;;;;;;12.60;99.90;;;;;;4957313;28;20039;-86
2022/11/18 14:08:52;;;;;;;4.07;1.33;;;12.50;99.90;;;;;;4962196;28;19960;-87
2022/11/18 14:12:04;;;;;;;3.90;1.70;;;12.40;99.90;;;;;;4963176;28;20050;-88
2022/11/18 14:14:42;;;;;;;3.60;1.40;;;12.30;99.90;;;;;;4955547;28;20036;-87
2022/11/18 14:17:16;;;;;;;2.65;1.42;;;12.30;99.90;;;;;;4958326;28;20035;-87
2022/11/18 14:19:54;;;;;;;3.40;1.40;;;12.30;99.90;;;;;;4970789;28;20031;-86
2022/11/18 14:22:28;;;;;;;2.92;1.40;;;12.40;99.90;;;;;;4967747;28;20145;-88
2022/11/18 14:25:14;;;;;;;2.90;1.45;;;12.30;99.90;;;;;;4960058;28;20023;-87
2022/11/18 14:28:00;;;;;;;3.42;1.58;;;12.30;99.90;;;;;;4966436;28;20039;-86
2022/11/18 14:30:40;;;;;;;3.10;1.23;;;12.30;99.90;;;;;;4957638;28;20085;-87
2022/11/18 14:33:19;;;;;;;2.17;1.10;;;12.30;99.90;;;;;;5007460;28;20034;-88
2022/11/18 14:35:51;;;;;;;5.18;1.63;;;12.30;99.90;;;;;;5000996;28;20027;-86
2022/11/18 14:38:27;;;;;;;2.20;1.40;;;12.40;99.90;;;;;;5007810;28;20062;-87